createdAt,value
2018-07-16T00:02:11.965Z,1.40
2018-07-16T00:04:44.378Z,1.33
2018-07-16T00:07:16.825Z,1.37
2018-07-16T00:09:49.261Z,1.50
2018-07-16T00:12:22.001Z,1.30
2018-07-16T00:14:54.445Z,1.60
2018-07-16T00:17:26.881Z,1.40
2018-07-16T00:19:59.542Z,1.43
2018-07-16T00:22:31.965Z,1.97
2018-07-16T00:25:04.364Z,1.30
2018-07-16T00:27:36.800Z,1.30
2018-07-16T00:30:09.203Z,1.23
2018-07-16T00:32:41.619Z,1.40
2018-07-16T00:35:14.354Z,1.87
2018-07-16T00:37:46.770Z,1.60
2018-07-16T00:40:19.173Z,1.40
2018-07-16T00:42:51.606Z,1.75
2018-07-16T00:45:24.010Z,1.43
2018-07-16T00:47:56.442Z,1.60
2018-07-16T00:50:28.864Z,1.57
2018-07-16T00:53:01.273Z,1.60
2018-07-16T00:55:33.686Z,1.50
2018-07-16T00:58:06.433Z,1.60
2018-07-16T01:00:38.821Z,1.70
2018-07-16T01:03:11.245Z,1.50
2018-07-16T01:05:43.658Z,1.80
2018-07-16T01:08:16.100Z,1.60
2018-07-16T01:10:48.506Z,1.70
2018-07-16T01:13:20.973Z,1.53
2018-07-16T01:15:53.381Z,1.70
2018-07-16T01:18:26.010Z,1.63
2018-07-16T01:20:58.725Z,1.50
2018-07-16T01:23:31.145Z,1.90
2018-07-16T01:26:03.544Z,1.90
2018-07-16T01:28:35.963Z,1.90
2018-07-16T01:31:08.384Z,2.00
2018-07-16T01:33:40.792Z,1.87
2018-07-16T01:36:14.263Z,1.90
2018-07-16T01:38:46.669Z,1.70
2018-07-16T01:41:19.087Z,2.00
2018-07-16T01:43:51.799Z,1.60
2018-07-16T01:46:24.205Z,2.00
2018-07-16T01:48:56.632Z,2.03
2018-07-16T01:51:29.056Z,1.80
2018-07-16T01:54:01.495Z,1.90
2018-07-16T01:56:33.965Z,1.90
2018-07-16T01:59:06.409Z,1.57
2018-07-16T02:01:39.118Z,1.57
2018-07-16T02:04:11.798Z,1.80
2018-07-16T02:06:44.227Z,1.80
2018-07-16T02:09:16.645Z,1.80
2018-07-16T02:11:49.074Z,1.77
2018-07-16T02:14:21.543Z,1.83
2018-07-16T02:16:54.240Z,1.77
2018-07-16T02:19:26.709Z,1.47
2018-07-16T02:21:59.105Z,2.00
2018-07-16T02:24:31.534Z,1.70
2018-07-16T02:27:04.249Z,1.70
2018-07-16T02:29:36.965Z,1.60
2018-07-16T02:32:09.731Z,1.80
2018-07-16T02:34:42.148Z,1.90
2018-07-16T02:37:14.841Z,1.97
2018-07-16T02:39:47.273Z,2.00
2018-07-16T02:42:19.682Z,1.90
2018-07-16T02:44:52.103Z,1.90
2018-07-16T02:47:25.082Z,1.90
2018-07-16T02:49:57.517Z,1.80
2018-07-16T02:52:29.974Z,2.00
2018-07-16T02:55:02.430Z,2.23
2018-07-16T02:57:34.843Z,1.90
2018-07-16T03:00:07.307Z,1.77
2018-07-16T03:02:39.746Z,1.77
2018-07-16T03:05:12.523Z,1.87
2018-07-16T03:07:44.950Z,1.63
2018-07-16T03:10:17.658Z,1.70
2018-07-16T03:12:50.097Z,1.70
2018-07-16T03:15:22.535Z,2.10
2018-07-16T03:17:54.968Z,1.90
2018-07-16T03:20:27.394Z,1.90
2018-07-16T03:23:00.139Z,1.70
2018-07-16T03:25:32.559Z,1.80
2018-07-16T03:28:04.985Z,2.03
2018-07-16T03:30:37.429Z,1.90
2018-07-16T03:33:09.829Z,2.00
2018-07-16T03:35:42.274Z,2.20
2018-07-16T03:38:14.945Z,1.93
2018-07-16T03:40:47.367Z,2.20
2018-07-16T03:43:19.778Z,2.03
2018-07-16T03:45:52.194Z,2.33
2018-07-16T03:48:24.610Z,2.13
2018-07-16T03:50:57.034Z,2.10
2018-07-16T03:53:29.473Z,2.03
2018-07-16T03:56:02.155Z,1.83
2018-07-16T03:58:34.837Z,2.40
2018-07-16T04:01:07.307Z,2.13
2018-07-16T04:03:39.992Z,1.90
2018-07-16T04:06:12.460Z,2.00
2018-07-16T04:08:45.176Z,2.10
2018-07-16T04:11:17.611Z,1.80
2018-07-16T04:13:50.062Z,1.90
2018-07-16T04:16:22.478Z,1.85
2018-07-16T04:18:54.898Z,2.05
2018-07-16T04:21:27.333Z,1.87
2018-07-16T04:23:59.761Z,2.02
2018-07-16T04:26:32.230Z,2.10
2018-07-16T04:29:04.679Z,2.45
2018-07-16T04:31:37.180Z,2.30
2018-07-16T04:34:09.654Z,2.30
2018-07-16T04:36:42.104Z,2.47
2018-07-16T04:39:14.514Z,2.37
2018-07-16T04:41:47.236Z,2.02
2018-07-16T04:44:19.669Z,2.77
2018-07-16T04:46:52.397Z,2.20
2018-07-16T04:49:24.831Z,2.20
2018-07-16T04:51:57.259Z,2.10
2018-07-16T04:54:29.674Z,2.27
2018-07-16T04:57:02.129Z,1.82
2018-07-16T04:59:34.562Z,1.87
2018-07-16T05:02:07.077Z,1.80
2018-07-16T05:04:39.757Z,1.98
2018-07-16T05:07:12.185Z,1.45
2018-07-16T05:09:44.602Z,1.55
2018-07-16T05:12:17.050Z,1.40
2018-07-16T05:14:49.510Z,1.25
2018-07-16T05:17:21.926Z,1.32
2018-07-16T05:19:54.342Z,1.20
2018-07-16T05:22:26.786Z,1.45
2018-07-16T05:24:59.201Z,1.27
2018-07-16T05:27:31.643Z,1.07
2018-07-16T05:30:04.051Z,1.07
2018-07-16T05:32:36.634Z,1.20
2018-07-16T05:35:09.156Z,1.15
2018-07-16T05:37:41.586Z,1.30
2018-07-16T05:40:14.011Z,1.20
2018-07-16T05:42:46.681Z,1.40
2018-07-16T05:45:19.098Z,1.50
2018-07-16T05:47:51.758Z,1.40
2018-07-16T05:50:24.178Z,1.30
2018-07-16T05:52:57.590Z,1.47
2018-07-16T05:55:30.022Z,1.50
2018-07-16T05:58:02.460Z,1.40
2018-07-16T06:00:34.873Z,1.80
2018-07-16T06:03:07.295Z,1.37
2018-07-16T06:05:39.718Z,2.30
2018-07-16T06:08:12.369Z,1.80
2018-07-16T06:10:45.049Z,1.72
2018-07-16T06:13:17.498Z,2.00
2018-07-16T06:15:49.903Z,2.08
2018-07-16T06:18:22.377Z,1.80
2018-07-16T06:20:54.777Z,1.90
2018-07-16T06:23:27.489Z,1.60
2018-07-16T06:26:00.745Z,1.80
2018-07-16T06:28:33.469Z,1.72
2018-07-16T06:31:05.944Z,1.77
2018-07-16T06:33:38.452Z,2.08
2018-07-16T06:36:11.226Z,2.70
2018-07-16T06:38:43.732Z,3.80
2018-07-16T06:41:16.870Z,3.72
2018-07-16T06:43:49.249Z,3.27
2018-07-16T06:46:21.665Z,3.00
2018-07-16T06:48:54.090Z,3.60
2018-07-16T06:51:27.094Z,3.00
2018-07-16T06:53:59.519Z,4.40
2018-07-16T06:56:31.945Z,3.60
2018-07-16T06:59:04.403Z,3.72
2018-07-16T07:01:37.201Z,3.50
2018-07-16T07:04:09.636Z,4.33
2018-07-16T07:06:42.054Z,4.47
2018-07-16T07:09:14.716Z,4.45
2018-07-16T07:11:47.143Z,3.85
2018-07-16T07:14:19.585Z,4.72
2018-07-16T07:16:52.019Z,4.30
2018-07-16T07:19:24.422Z,4.10
2018-07-16T07:21:56.829Z,4.00
2018-07-16T07:24:29.266Z,4.58
2018-07-16T07:27:01.687Z,3.70
2018-07-16T07:29:34.130Z,3.15
2018-07-16T07:32:06.571Z,3.80
2018-07-16T07:34:39.053Z,3.00
2018-07-16T07:37:11.485Z,2.62
2018-07-16T07:39:43.909Z,3.22
2018-07-16T07:42:16.329Z,2.90
2018-07-16T07:44:48.769Z,2.80
2018-07-16T07:47:22.302Z,2.85
2018-07-16T07:49:54.766Z,3.10
2018-07-16T07:52:27.277Z,2.72
2018-07-16T07:54:59.993Z,3.35
2018-07-16T07:57:32.222Z,3.12
2018-07-16T08:00:05.085Z,3.22
2018-07-16T08:02:37.547Z,2.92
2018-07-16T08:05:09.976Z,3.35
2018-07-16T08:07:42.426Z,3.27
2018-07-16T08:10:14.971Z,3.17
2018-07-16T08:12:47.409Z,3.17
2018-07-16T08:15:19.846Z,2.90
2018-07-16T08:17:52.195Z,2.95
2018-07-16T08:20:24.622Z,3.20
2018-07-16T08:22:57.105Z,2.92
2018-07-16T08:25:29.579Z,3.20
2018-07-16T08:28:02.117Z,2.92
2018-07-16T08:30:34.530Z,2.50
2018-07-16T08:33:06.983Z,3.10
2018-07-16T08:35:39.437Z,2.67
2018-07-16T08:38:11.958Z,3.50
2018-07-16T08:40:44.385Z,3.00
2018-07-16T08:43:16.968Z,3.10
2018-07-16T08:45:49.613Z,3.00
2018-07-16T08:48:22.050Z,2.40
2018-07-16T08:50:54.472Z,2.98
2018-07-16T08:53:26.889Z,2.45
2018-07-16T08:55:59.362Z,2.22
2018-07-16T08:58:31.817Z,2.17
2018-07-16T09:01:04.230Z,2.30
2018-07-16T09:03:36.674Z,2.20
2018-07-16T09:06:09.078Z,2.30
2018-07-16T09:08:41.517Z,2.37
2018-07-16T09:11:13.972Z,2.00
2018-07-16T09:13:46.414Z,2.00
2018-07-16T09:16:19.089Z,2.10
2018-07-16T09:18:51.792Z,2.15
2018-07-16T09:21:24.316Z,2.45
2018-07-16T09:23:56.770Z,1.70
2018-07-16T09:26:29.212Z,1.82
2018-07-16T09:29:01.881Z,2.83
2018-07-16T09:31:34.300Z,2.20
2018-07-16T09:34:07.549Z,3.50
2018-07-16T09:36:40.210Z,4.08
2018-07-16T09:39:12.647Z,2.50
2018-07-16T09:41:45.067Z,1.55
2018-07-16T09:44:17.560Z,2.30
2018-07-16T09:46:50.693Z,1.50
2018-07-16T09:49:23.201Z,1.50
2018-07-16T09:51:55.625Z,1.77
2018-07-16T09:54:28.045Z,1.70
2018-07-16T09:57:00.489Z,1.82
2018-07-16T09:59:32.921Z,1.90
2018-07-16T10:02:05.384Z,1.70
2018-07-16T10:04:37.846Z,1.60
2018-07-16T10:07:10.278Z,1.70
2018-07-16T10:09:42.751Z,2.20
2018-07-16T10:12:15.166Z,1.90
2018-07-16T10:14:47.811Z,1.90
2018-07-16T10:17:20.279Z,2.12
2018-07-16T10:19:52.705Z,1.65
2018-07-16T10:22:25.102Z,1.62
2018-07-16T10:24:57.520Z,1.60
2018-07-16T10:27:29.951Z,1.80
2018-07-16T10:30:02.388Z,1.90
2018-07-16T10:32:34.792Z,2.52
2018-07-16T10:35:07.217Z,1.60
2018-07-16T10:37:40.870Z,1.70
2018-07-16T10:40:13.618Z,1.70
2018-07-16T10:42:46.289Z,2.00
2018-07-16T10:45:18.713Z,1.82
2018-07-16T10:47:51.486Z,1.60
2018-07-16T10:50:23.905Z,1.80
2018-07-16T10:52:56.333Z,1.85
2018-07-16T10:55:28.780Z,1.85
2018-07-16T10:58:01.242Z,1.45
2018-07-16T11:00:33.683Z,1.60
2018-07-16T11:03:06.322Z,2.00
2018-07-16T11:05:38.716Z,3.17
2018-07-16T11:08:11.142Z,1.70
2018-07-16T11:10:43.599Z,1.60
2018-07-16T11:13:16.022Z,1.50
2018-07-16T11:15:49.114Z,1.22
2018-07-16T11:18:21.869Z,1.40
2018-07-16T11:20:54.338Z,1.30
2018-07-16T11:23:26.779Z,2.20
2018-07-16T11:25:59.213Z,1.60
2018-07-16T11:28:31.629Z,1.65
2018-07-16T11:31:04.091Z,1.90
2018-07-16T11:33:36.507Z,1.42
2018-07-16T11:36:08.970Z,1.90
2018-07-16T11:38:41.388Z,1.45
2018-07-16T11:41:14.134Z,1.62
2018-07-16T11:43:46.600Z,3.65
2018-07-16T11:46:19.083Z,1.45
2018-07-16T11:48:51.462Z,1.70
2018-07-16T11:51:23.895Z,2.05
2018-07-16T11:53:56.621Z,1.35
2018-07-16T11:56:29.162Z,1.25
2018-07-16T11:59:01.696Z,1.30
2018-07-16T12:01:34.089Z,2.00
2018-07-16T12:04:06.525Z,1.22
2018-07-16T12:06:39.289Z,1.40
2018-07-16T12:09:11.719Z,1.20
2018-07-16T12:11:44.438Z,1.30
2018-07-16T12:14:16.866Z,1.50
2018-07-16T12:16:49.295Z,1.17
2018-07-16T12:19:21.705Z,1.57
2018-07-16T12:21:54.451Z,1.40
2018-07-16T12:24:26.857Z,1.05
2018-07-16T12:26:59.323Z,1.80
2018-07-16T12:29:31.977Z,1.05
2018-07-16T12:32:04.402Z,1.12
2018-07-16T12:34:36.829Z,1.20
2018-07-16T12:37:09.593Z,1.10
2018-07-16T12:39:42.009Z,1.17
2018-07-16T12:42:14.454Z,0.98
2018-07-16T12:44:46.892Z,1.10
2018-07-16T12:47:19.573Z,1.20
2018-07-16T12:49:52.024Z,1.10
2018-07-16T12:52:24.449Z,1.10
2018-07-16T12:54:56.928Z,1.45
2018-07-16T12:57:29.358Z,1.30
2018-07-16T13:00:01.764Z,1.12
2018-07-16T13:02:34.175Z,1.10
2018-07-16T13:05:06.591Z,1.00
2018-07-16T13:07:39.001Z,1.62
2018-07-16T13:10:11.523Z,1.30
2018-07-16T13:12:43.957Z,1.47
2018-07-16T13:15:16.585Z,1.30
2018-07-16T13:17:49.005Z,1.77
2018-07-16T13:20:21.409Z,1.30
2018-07-16T13:22:53.840Z,1.20
2018-07-16T13:25:26.259Z,1.65
2018-07-16T13:27:58.709Z,1.27
2018-07-16T13:30:31.133Z,1.20
2018-07-16T13:33:03.553Z,1.22
2018-07-16T13:35:36.048Z,1.57
2018-07-16T13:38:08.467Z,1.65
2018-07-16T13:40:41.110Z,1.47
2018-07-16T13:43:13.581Z,1.62
2018-07-16T13:45:46.005Z,1.50
2018-07-16T13:48:18.478Z,1.62
2018-07-16T13:50:50.917Z,1.40
2018-07-16T13:53:23.346Z,1.40
2018-07-16T13:55:55.798Z,1.32
2018-07-16T13:58:28.237Z,1.30
2018-07-16T14:01:00.678Z,1.57
2018-07-16T14:03:33.394Z,1.42
2018-07-16T14:06:05.912Z,1.50
2018-07-16T14:08:38.566Z,1.40
2018-07-16T14:11:11.014Z,1.30
2018-07-16T14:13:43.698Z,1.12
2018-07-16T14:16:16.397Z,1.30
2018-07-16T14:18:48.857Z,1.22
2018-07-16T14:21:21.324Z,1.30
2018-07-16T14:23:53.743Z,1.52
2018-07-16T14:26:26.201Z,1.40
2018-07-16T14:28:58.619Z,1.60
2018-07-16T14:31:31.070Z,1.40
2018-07-16T14:34:03.510Z,1.47
2018-07-16T14:36:35.940Z,1.80
2018-07-16T14:39:08.449Z,1.80
2018-07-16T14:41:41.105Z,1.45
2018-07-16T14:44:13.510Z,1.50
2018-07-16T14:46:45.925Z,1.47
2018-07-16T14:49:18.345Z,1.40
2018-07-16T14:51:50.808Z,1.40
2018-07-16T14:54:23.207Z,1.00
2018-07-16T14:56:55.639Z,1.37
2018-07-16T14:59:28.053Z,1.00
2018-07-16T15:02:00.466Z,1.25
2018-07-16T15:04:32.886Z,1.02
2018-07-16T15:07:05.317Z,1.10
2018-07-16T15:09:37.749Z,1.00
2018-07-16T15:12:10.178Z,1.15
2018-07-16T15:14:42.604Z,1.25
2018-07-16T15:17:15.060Z,1.20
2018-07-16T15:19:47.533Z,1.30
2018-07-16T15:22:19.933Z,1.20
2018-07-16T15:24:52.342Z,1.20
2018-07-16T15:27:24.754Z,1.50
2018-07-16T15:29:57.487Z,1.30
2018-07-16T15:32:29.915Z,1.10
2018-07-16T15:35:02.653Z,1.35
2018-07-16T15:37:35.077Z,1.32
2018-07-16T15:40:07.518Z,1.12
2018-07-16T15:42:39.958Z,1.10
2018-07-16T15:45:12.378Z,1.40
2018-07-16T15:47:44.908Z,1.30
2018-07-16T15:50:17.352Z,1.30
2018-07-16T15:52:49.772Z,1.27
2018-07-16T15:55:22.189Z,1.32
2018-07-16T15:57:54.642Z,1.50
2018-07-16T16:00:27.066Z,1.30
2018-07-16T16:02:59.795Z,1.62
2018-07-16T16:05:32.197Z,1.10
2018-07-16T16:08:05.054Z,1.37
2018-07-16T16:10:37.491Z,1.40
2018-07-16T16:13:10.033Z,1.30
2018-07-16T16:15:42.375Z,1.35
2018-07-16T16:18:14.881Z,1.20
2018-07-16T16:20:47.885Z,1.52
2018-07-16T16:23:20.416Z,1.30
2018-07-16T16:25:52.762Z,1.47
2018-07-16T16:28:25.032Z,1.80
2018-07-16T16:30:57.469Z,1.32
2018-07-16T16:33:30.202Z,1.25
2018-07-16T16:36:02.758Z,1.10
2018-07-16T16:38:35.568Z,1.40
2018-07-16T16:41:08.016Z,1.27
2018-07-16T16:43:40.716Z,1.37
2018-07-16T16:46:13.184Z,1.12
2018-07-16T16:48:46.180Z,1.30
2018-07-16T16:51:18.688Z,1.30
2018-07-16T16:53:51.586Z,1.27
2018-07-16T16:56:24.090Z,1.10
2018-07-16T16:58:56.349Z,1.30
2018-07-16T17:01:28.814Z,1.40
2018-07-16T17:04:01.270Z,1.67
2018-07-16T17:06:33.763Z,1.40
2018-07-16T17:09:06.672Z,1.45
2018-07-16T17:11:39.529Z,1.05
2018-07-16T17:14:12.031Z,1.50
2018-07-16T17:16:44.513Z,1.27
2018-07-16T17:19:17.330Z,1.20
2018-07-16T17:21:50.051Z,1.15
2018-07-16T17:24:22.754Z,1.47
2018-07-16T17:26:55.246Z,1.20
2018-07-16T17:29:27.753Z,1.30
2018-07-16T17:32:00.213Z,1.40
2018-07-16T17:34:32.997Z,1.37
2018-07-16T17:37:05.432Z,1.22
2018-07-16T17:39:38.593Z,1.30
2018-07-16T17:42:11.053Z,1.45
2018-07-16T17:44:43.506Z,1.50
2018-07-16T17:47:15.970Z,1.32
2018-07-16T17:49:48.479Z,1.30
2018-07-16T17:52:20.964Z,1.62
2018-07-16T17:54:53.763Z,1.30
2018-07-16T17:57:26.225Z,1.57
2018-07-16T17:59:58.757Z,1.40
2018-07-16T18:02:31.183Z,1.30
2018-07-16T18:05:04.458Z,1.30
2018-07-16T18:07:36.961Z,1.65
2018-07-16T18:10:10.024Z,1.35
2018-07-16T18:12:42.598Z,1.45
2018-07-16T18:15:15.034Z,1.67
2018-07-16T18:17:47.555Z,1.40
2018-07-16T18:20:19.940Z,1.65
2018-07-16T18:22:52.426Z,1.30
2018-07-16T18:25:24.923Z,1.40
2018-07-16T18:27:57.354Z,1.30
2018-07-16T18:30:30.062Z,1.47
2018-07-16T18:33:02.503Z,1.70
2018-07-16T18:35:34.916Z,1.70
2018-07-16T18:38:07.269Z,1.92
2018-07-16T18:40:39.745Z,1.87
2018-07-16T18:43:12.258Z,1.72
2018-07-16T18:45:44.751Z,1.80
2018-07-16T18:48:17.570Z,2.20
2018-07-16T18:50:50.350Z,1.80
2018-07-16T18:53:22.793Z,1.92
2018-07-16T18:55:55.616Z,2.00
2018-07-16T18:58:28.077Z,1.75
2018-07-16T19:01:00.546Z,2.10
2018-07-16T19:03:33.180Z,1.80
2018-07-16T19:06:05.659Z,1.57
2018-07-16T19:08:38.101Z,1.65
2018-07-16T19:11:10.816Z,1.85
2018-07-16T19:13:43.351Z,2.40
2018-07-16T19:16:15.951Z,2.15
2018-07-16T19:18:48.562Z,1.57
2018-07-16T19:21:21.073Z,1.90
2018-07-16T19:23:54.080Z,1.90
2018-07-16T19:26:26.549Z,2.08
2018-07-16T19:28:59.316Z,1.60
2018-07-16T19:31:32.173Z,1.82
2018-07-16T19:34:04.565Z,1.67
2018-07-16T19:36:37.058Z,1.60
2018-07-16T19:39:10.048Z,1.95
2018-07-16T19:41:42.451Z,1.50
2018-07-16T19:44:14.881Z,1.65
2018-07-16T19:46:47.648Z,1.80
2018-07-16T19:49:20.049Z,2.00
2018-07-16T19:51:52.902Z,1.98
2018-07-16T19:54:25.582Z,2.42
2018-07-16T19:56:58.119Z,2.30
2018-07-16T19:59:30.839Z,2.25
2018-07-16T20:02:03.297Z,2.35
2018-07-16T20:04:36.094Z,2.42
2018-07-16T20:07:08.586Z,1.95
2018-07-16T20:09:41.282Z,2.22
2018-07-16T20:12:25.325Z,2.00
2018-07-16T20:14:57.909Z,1.90
2018-07-16T20:17:30.650Z,1.92
2018-07-16T20:20:05.041Z,2.00
2018-07-16T20:22:37.465Z,2.37
2018-07-16T20:25:09.950Z,2.08
2018-07-16T20:27:42.433Z,1.80
2018-07-16T20:30:14.889Z,1.80
2018-07-16T20:32:47.323Z,2.10
